sensor_id;sensor_type;location;lat;lon;timestamp;P1;durP1;ratioP1;P2;durP2;ratioP2
78664;SDS011;67981;51.022;-2.870;2023-11-21T00:01:56;7.15;;;2.40;;
78664;SDS011;67981;51.022;-2.870;2023-11-21T00:04:22;6.13;;;2.17;;
78664;SDS011;67981;51.022;-2.870;2023-11-21T00:06:48;5.82;;;3.22;;
78664;SDS011;67981;51.022;-2.870;2023-11-21T00:09:14;4.13;;;2.60;;
78664;SDS011;67981;51.022;-2.870;2023-11-21T00:11:43;5.03;;;1.70;;
78664;SDS011;67981;51.022;-2.870;2023-11-21T00:14:10;8.38;;;2.72;;
78664;SDS011;67981;51.022;-2.870;2023-11-21T00:16:36;7.85;;;2.72;;
78664;SDS011;67981;51.022;-2.870;2023-11-21T00:19:02;10.52;;;2.28;;
78664;SDS011;67981;51.022;-2.870;2023-11-21T00:21:27;9.95;;;2.17;;
78664;SDS011;67981;51.022;-2.870;2023-11-21T00:23:52;8.45;;;2.15;;
78664;SDS011;67981;51.022;-2.870;2023-11-21T00:26:18;7.28;;;2.78;;
78664;SDS011;67981;51.022;-2.870;2023-11-21T00:28:43;7.75;;;2.08;;
78664;SDS011;67981;51.022;-2.870;2023-11-21T00:31:09;5.20;;;2.20;;
78664;SDS011;67981;51.022;-2.870;2023-11-21T00:33:34;6.83;;;2.23;;
78664;SDS011;67981;51.022;-2.870;2023-11-21T00:35:59;11.07;;;2.87;;
78664;SDS011;67981;51.022;-2.870;2023-11-21T00:38:25;11.00;;;2.17;;
78664;SDS011;67981;51.022;-2.870;2023-11-21T00:40:52;5.15;;;1.95;;
78664;SDS011;67981;51.022;-2.870;2023-11-21T00:43:21;10.43;;;1.90;;
78664;SDS011;67981;51.022;-2.870;2023-11-21T00:45:47;6.60;;;2.38;;
78664;SDS011;67981;51.022;-2.870;2023-11-21T00:48:14;6.28;;;2.00;;
78664;SDS011;67981;51.022;-2.870;2023-11-21T00:50:39;4.22;;;1.70;;
78664;SDS011;67981;51.022;-2.870;2023-11-21T00:53:05;3.80;;;1.98;;
78664;SDS011;67981;51.022;-2.870;2023-11-21T00:55:32;7.07;;;2.55;;
78664;SDS011;67981;51.022;-2.870;2023-11-21T00:57:58;5.45;;;1.60;;
78664;SDS011;67981;51.022;-2.870;2023-11-21T01:00:23;11.18;;;1.95;;
78664;SDS011;67981;51.022;-2.870;2023-11-21T01:02:49;7.50;;;2.08;;
78664;SDS011;67981;51.022;-2.870;2023-11-21T01:05:14;9.88;;;2.20;;
78664;SDS011;67981;51.022;-2.870;2023-11-21T01:07:40;6.35;;;2.17;;
78664;SDS011;67981;51.022;-2.870;2023-11-21T01:10:05;9.35;;;2.65;;
78664;SDS011;67981;51.022;-2.870;2023-11-21T01:12:33;6.20;;;2.13;;
78664;SDS011;67981;51.022;-2.870;2023-11-21T01:14:59;7.68;;;2.00;;
78664;SDS011;67981;51.022;-2.870;2023-11-21T01:17:25;7.72;;;2.28;;
78664;SDS011;67981;51.022;-2.870;2023-11-21T01:19:52;6.68;;;2.20;;
78664;SDS011;67981;51.022;-2.870;2023-11-21T01:22:17;8.15;;;2.30;;
78664;SDS011;67981;51.022;-2.870;2023-11-21T01:24:47;11.32;;;2.05;;
78664;SDS011;67981;51.022;-2.870;2023-11-21T01:27:12;6.90;;;2.22;;
78664;SDS011;67981;51.022;-2.870;2023-11-21T01:29:38;6.53;;;1.67;;
78664;SDS011;67981;51.022;-2.870;2023-11-21T01:32:03;6.50;;;2.00;;
78664;SDS011;67981;51.022;-2.870;2023-11-21T01:34:29;8.98;;;2.58;;
78664;SDS011;67981;51.022;-2.870;2023-11-21T01:36:55;7.97;;;2.45;;
78664;SDS011;67981;51.022;-2.870;2023-11-21T01:39:21;8.50;;;2.03;;
78664;SDS011;67981;51.022;-2.870;2023-11-21T01:41:49;8.55;;;2.13;;
78664;SDS011;67981;51.022;-2.870;2023-11-21T01:44:15;10.00;;;3.05;;
78664;SDS011;67981;51.022;-2.870;2023-11-21T01:46:42;10.90;;;1.67;;
78664;SDS011;67981;51.022;-2.870;2023-11-21T01:49:07;6.40;;;2.50;;
78664;SDS011;67981;51.022;-2.870;2023-11-21T01:51:38;7.63;;;1.85;;
78664;SDS011;67981;51.022;-2.870;2023-11-21T01:54:04;5.35;;;1.70;;
78664;SDS011;67981;51.022;-2.870;2023-11-21T01:56:31;9.98;;;2.20;;
78664;SDS011;67981;51.022;-2.870;2023-11-21T01:58:57;8.48;;;2.83;;
78664;SDS011;67981;51.022;-2.870;2023-11-21T02:01:23;9.57;;;2.78;;
78664;SDS011;67981;51.022;-2.870;2023-11-21T02:03:48;7.57;;;2.10;;
78664;SDS011;67981;51.022;-2.870;2023-11-21T02:06:14;5.10;;;1.92;;
78664;SDS011;67981;51.022;-2.870;2023-11-21T02:08:39;4.97;;;1.48;;
78664;SDS011;67981;51.022;-2.870;2023-11-21T02:11:07;7.63;;;1.65;;
78664;SDS011;67981;51.022;-2.870;2023-11-21T02:13:34;8.60;;;2.30;;
78664;SDS011;67981;51.022;-2.870;2023-11-21T02:15:59;6.93;;;1.67;;
78664;SDS011;67981;51.022;-2.870;2023-11-21T02:18:25;7.43;;;1.65;;
78664;SDS011;67981;51.022;-2.870;2023-11-21T02:20:50;4.15;;;1.50;;
78664;SDS011;67981;51.022;-2.870;2023-11-21T02:23:16;6.93;;;1.65;;
78664;SDS011;67981;51.022;-2.870;2023-11-21T02:25:43;4.05;;;1.50;;
78664;SDS011;67981;51.022;-2.870;2023-11-21T02:28:08;7.32;;;1.80;;
78664;SDS011;67981;51.022;-2.870;2023-11-21T02:30:34;2.95;;;1.25;;
78664;SDS011;67981;51.022;-2.870;2023-11-21T02:33:01;8.15;;;1.70;;
78664;SDS011;67981;51.022;-2.870;2023-11-21T02:35:26;7.57;;;1.80;;
78664;SDS011;67981;51.022;-2.870;2023-11-21T02:37:52;3.78;;;1.77;;
78664;SDS011;67981;51.022;-2.870;2023-11-21T02:40:18;6.40;;;1.35;;
78664;SDS011;67981;51.022;-2.870;2023-11-21T02:42:45;6.85;;;1.73;;
78664;SDS011;67981;51.022;-2.870;2023-11-21T02:45:12;6.20;;;1.40;;
78664;SDS011;67981;51.022;-2.870;2023-11-21T02:47:42;5.28;;;2.05;;
78664;SDS011;67981;51.022;-2.870;2023-11-21T02:50:08;6.70;;;2.03;;
78664;SDS011;67981;51.022;-2.870;2023-11-21T02:52:34;3.85;;;1.50;;
78664;SDS011;67981;51.022;-2.870;2023-11-21T02:55:01;5.28;;;1.85;;
78664;SDS011;67981;51.022;-2.870;2023-11-21T02:57:27;6.43;;;2.60;;
78664;SDS011;67981;51.022;-2.870;2023-11-21T02:59:52;8.95;;;1.67;;
78664;SDS011;67981;51.022;-2.870;2023-11-21T03:02:17;7.38;;;1.73;;
78664;SDS011;67981;51.022;-2.870;2023-11-21T03:04:43;6.68;;;1.50;;
78664;SDS011;67981;51.022;-2.870;2023-11-21T03:07:09;4.72;;;2.08;;
78664;SDS011;67981;51.022;-2.870;2023-11-21T03:09:35;7.70;;;1.50;;
78664;SDS011;67981;51.022;-2.870;2023-11-21T03:12:00;3.70;;;1.45;;
78664;SDS011;67981;51.022;-2.870;2023-11-21T03:14:26;3.03;;;2.17;;
78664;SDS011;67981;51.022;-2.870;2023-11-21T03:16:51;4.75;;;1.40;;
78664;SDS011;67981;51.022;-2.870;2023-11-21T03:19:17;6.05;;;1.75;;
78664;SDS011;67981;51.022;-2.870;2023-11-21T03:21:42;5.38;;;1.40;;
78664;SDS011;67981;51.022;-2.870;2023-11-21T03:24:08;6.90;;;1.77;;
78664;SDS011;67981;51.022;-2.870;2023-11-21T03:26:33;2.85;;;1.10;;
78664;SDS011;67981;51.022;-2.870;2023-11-21T03:28:59;3.22;;;1.48;;
78664;SDS011;67981;51.022;-2.870;2023-11-21T03:31:24;3.53;;;1.13;;
78664;SDS011;67981;51.022;-2.870;2023-11-21T03:33:49;3.10;;;1.33;;
78664;SDS011;67981;51.022;-2.870;2023-11-21T03:36:15;6.70;;;1.20;;
78664;SDS011;67981;51.022;-2.870;2023-11-21T03:38:41;3.38;;;1.20;;
78664;SDS011;67981;51.022;-2.870;2023-11-21T03:41:07;4.45;;;1.35;;
78664;SDS011;67981;51.022;-2.870;2023-11-21T03:43:35;2.42;;;1.10;;
78664;SDS011;67981;51.022;-2.870;2023-11-21T03:46:01;3.50;;;1.40;;
78664;SDS011;67981;51.022;-2.870;2023-11-21T03:48:26;7.30;;;2.22;;
78664;SDS011;67981;51.022;-2.870;2023-11-21T03:50:52;8.98;;;2.08;;
78664;SDS011;67981;51.022;-2.870;2023-11-21T03:53:17;5.38;;;2.15;;
78664;SDS011;67981;51.022;-2.870;2023-11-21T03:55:43;3.88;;;1.10;;
78664;SDS011;67981;51.022;-2.870;2023-11-21T03:58:08;6.15;;;1.42;;
78664;SDS011;67981;51.022;-2.870;2023-11-21T04:00:33;3.35;;;1.90;;
78664;SDS011;67981;51.022;-2.870;2023-11-21T04:02:59;2.90;;;1.20;;
78664;SDS011;67981;51.022;-2.870;2023-11-21T04:05:24;5.03;;;1.80;;
78664;SDS011;67981;51.022;-2.870;2023-11-21T04:07:50;2.28;;;1.17;;
78664;SDS011;67981;51.022;-2.870;2023-11-21T04:10:18;3.42;;;1.52;;
78664;SDS011;67981;51.022;-2.870;2023-11-21T04:12:44;1.70;;;1.13;;
78664;SDS011;67981;51.022;-2.870;2023-11-21T04:15:10;2.85;;;1.48;;
78664;SDS011;67981;51.022;-2.870;2023-11-21T04:17:37;3.08;;;1.77;;
78664;SDS011;67981;51.022;-2.870;2023-11-21T04:20:03;3.53;;;1.40;;
78664;SDS011;67981;51.022;-2.870;2023-11-21T04:22:41;1.67;;;1.20;;
78664;SDS011;67981;51.022;-2.870;2023-11-21T04:25:12;1.40;;;0.77;;
78664;SDS011;67981;51.022;-2.870;2023-11-21T04:27:39;3.33;;;1.25;;
78664;SDS011;67981;51.022;-2.870;2023-11-21T04:30:06;2.25;;;1.30;;
78664;SDS011;67981;51.022;-2.870;2023-11-21T04:32:32;2.03;;;1.23;;
78664;SDS011;67981;51.022;-2.870;2023-11-21T04:34:58;4.07;;;1.60;;
78664;SDS011;67981;51.022;-2.870;2023-11-21T04:37:23;3.97;;;1.52;;
78664;SDS011;67981;51.022;-2.870;2023-11-21T04:39:49;2.70;;;1.73;;
78664;SDS011;67981;51.022;-2.870;2023-11-21T04:42:14;2.42;;;1.60;;
78664;SDS011;67981;51.022;-2.870;2023-11-21T04:44:40;2.55;;;1.50;;
78664;SDS011;67981;51.022;-2.870;2023-11-21T04:47:09;4.38;;;1.95;;
78664;SDS011;67981;51.022;-2.870;2023-11-21T04:49:34;2.80;;;1.77;;
78664;SDS011;67981;51.022;-2.870;2023-11-21T04:52:00;2.78;;;1.95;;
78664;SDS011;67981;51.022;-2.870;2023-11-21T04:54:26;3.67;;;1.70;;
78664;SDS011;67981;51.022;-2.870;2023-11-21T04:56:51;3.30;;;1.80;;
78664;SDS011;67981;51.022;-2.870;2023-11-21T04:59:17;2.90;;;1.65;;
78664;SDS011;67981;51.022;-2.870;2023-11-21T05:01:42;2.90;;;1.92;;
78664;SDS011;67981;51.022;-2.870;2023-11-21T05:04:08;2.65;;;1.85;;
78664;SDS011;67981;51.022;-2.870;2023-11-21T05:06:34;2.53;;;1.70;;
78664;SDS011;67981;51.022;-2.870;2023-11-21T05:08:59;2.75;;;1.75;;
78664;SDS011;67981;51.022;-2.870;2023-11-21T05:11:25;3.95;;;2.00;;
78664;SDS011;67981;51.022;-2.870;2023-11-21T05:13:51;3.25;;;1.98;;
78664;SDS011;67981;51.022;-2.870;2023-11-21T05:16:18;3.80;;;2.42;;
78664;SDS011;67981;51.022;-2.870;2023-11-21T05:18:44;3.17;;;2.13;;
78664;SDS011;67981;51.022;-2.870;2023-11-21T05:21:10;3.03;;;1.60;;
78664;SDS011;67981;51.022;-2.870;2023-11-21T05:23:36;2.95;;;1.77;;
78664;SDS011;67981;51.022;-2.870;2023-11-21T05:26:02;2.00;;;1.70;;
78664;SDS011;67981;51.022;-2.870;2023-11-21T05:28:28;2.95;;;1.90;;
78664;SDS011;67981;51.022;-2.870;2023-11-21T05:30:53;4.30;;;1.67;;
78664;SDS011;67981;51.022;-2.870;2023-11-21T05:33:19;1.65;;;1.05;;
78664;SDS011;67981;51.022;-2.870;2023-11-21T05:35:45;2.20;;;1.60;;
78664;SDS011;67981;51.022;-2.870;2023-11-21T05:38:10;2.77;;;1.87;;
78664;SDS011;67981;51.022;-2.870;2023-11-21T05:40:36;2.83;;;2.22;;
78664;SDS011;67981;51.022;-2.870;2023-11-21T05:43:02;2.50;;;1.77;;
78664;SDS011;67981;51.022;-2.870;2023-11-21T05:45:27;3.25;;;1.98;;
78664;SDS011;67981;51.022;-2.870;2023-11-21T05:47:54;2.97;;;1.73;;
78664;SDS011;67981;51.022;-2.870;2023-11-21T05:50:20;1.73;;;1.30;;
78664;SDS011;67981;51.022;-2.870;2023-11-21T05:52:47;2.75;;;1.25;;
78664;SDS011;67981;51.022;-2.870;2023-11-21T05:55:13;4.28;;;1.50;;
78664;SDS011;67981;51.022;-2.870;2023-11-21T05:57:39;1.92;;;1.42;;
78664;SDS011;67981;51.022;-2.870;2023-11-21T06:00:06;1.60;;;1.25;;
78664;SDS011;67981;51.022;-2.870;2023-11-21T06:02:40;1.70;;;1.20;;
78664;SDS011;67981;51.022;-2.870;2023-11-21T06:05:06;1.48;;;1.08;;
78664;SDS011;67981;51.022;-2.870;2023-11-21T06:07:32;1.25;;;1.10;;
78664;SDS011;67981;51.022;-2.870;2023-11-21T06:09:58;1.30;;;1.10;;
78664;SDS011;67981;51.022;-2.870;2023-11-21T06:12:23;1.23;;;0.85;;
78664;SDS011;67981;51.022;-2.870;2023-11-21T06:14:48;1.67;;;1.23;;
78664;SDS011;67981;51.022;-2.870;2023-11-21T06:17:14;2.28;;;0.90;;
78664;SDS011;67981;51.022;-2.870;2023-11-21T06:19:39;3.63;;;1.80;;
78664;SDS011;67981;51.022;-2.870;2023-11-21T06:22:05;1.05;;;0.90;;
78664;SDS011;67981;51.022;-2.870;2023-11-21T06:24:31;1.65;;;0.85;;
78664;SDS011;67981;51.022;-2.870;2023-11-21T06:26:56;1.70;;;0.82;;
78664;SDS011;67981;51.022;-2.870;2023-11-21T06:29:22;3.60;;;1.25;;
78664;SDS011;67981;51.022;-2.870;2023-11-21T06:31:47;0.80;;;0.77;;
78664;SDS011;67981;51.022;-2.870;2023-11-21T06:34:12;1.17;;;0.50;;
78664;SDS011;67981;51.022;-2.870;2023-11-21T06:36:38;0.98;;;0.77;;
78664;SDS011;67981;51.022;-2.870;2023-11-21T06:39:04;0.82;;;0.60;;
78664;SDS011;67981;51.022;-2.870;2023-11-21T06:41:33;0.77;;;0.65;;
78664;SDS011;67981;51.022;-2.870;2023-11-21T06:43:59;1.35;;;0.73;;
78664;SDS011;67981;51.022;-2.870;2023-11-21T06:46:25;3.85;;;0.95;;
78664;SDS011;67981;51.022;-2.870;2023-11-21T06:48:50;1.10;;;0.90;;
78664;SDS011;67981;51.022;-2.870;2023-11-21T06:51:15;0.93;;;0.80;;
78664;SDS011;67981;51.022;-2.870;2023-11-21T06:53:41;0.60;;;0.60;;
78664;SDS011;67981;51.022;-2.870;2023-11-21T06:56:19;1.27;;;0.65;;
78664;SDS011;67981;51.022;-2.870;2023-11-21T06:58:45;1.80;;;0.80;;
78664;SDS011;67981;51.022;-2.870;2023-11-21T07:01:11;1.33;;;0.75;;
78664;SDS011;67981;51.022;-2.870;2023-11-21T07:03:38;1.90;;;0.77;;
78664;SDS011;67981;51.022;-2.870;2023-11-21T07:06:04;1.70;;;0.80;;
78664;SDS011;67981;51.022;-2.870;2023-11-21T07:08:30;1.23;;;0.90;;
78664;SDS011;67981;51.022;-2.870;2023-11-21T07:10:55;0.80;;;0.80;;
78664;SDS011;67981;51.022;-2.870;2023-11-21T07:13:21;0.97;;;0.50;;
78664;SDS011;67981;51.022;-2.870;2023-11-21T07:15:46;2.33;;;0.77;;
78664;SDS011;67981;51.022;-2.870;2023-11-21T07:18:13;1.38;;;1.08;;
78664;SDS011;67981;51.022;-2.870;2023-11-21T07:20:38;0.77;;;0.68;;
78664;SDS011;67981;51.022;-2.870;2023-11-21T07:23:04;1.00;;;0.90;;
78664;SDS011;67981;51.022;-2.870;2023-11-21T07:25:30;0.85;;;0.50;;
78664;SDS011;67981;51.022;-2.870;2023-11-21T07:27:56;0.93;;;0.80;;
78664;SDS011;67981;51.022;-2.870;2023-11-21T07:30:22;1.60;;;0.70;;
78664;SDS011;67981;51.022;-2.870;2023-11-21T07:32:48;2.47;;;0.75;;
78664;SDS011;67981;51.022;-2.870;2023-11-21T07:35:13;1.45;;;0.68;;
78664;SDS011;67981;51.022;-2.870;2023-11-21T07:37:39;2.47;;;0.68;;
78664;SDS011;67981;51.022;-2.870;2023-11-21T07:40:04;0.50;;;0.45;;
78664;SDS011;67981;51.022;-2.870;2023-11-21T07:42:31;0.65;;;0.60;;
78664;SDS011;67981;51.022;-2.870;2023-11-21T07:44:56;3.15;;;1.05;;
78664;SDS011;67981;51.022;-2.870;2023-11-21T07:47:21;1.30;;;0.60;;
78664;SDS011;67981;51.022;-2.870;2023-11-21T07:49:47;0.55;;;0.55;;
78664;SDS011;67981;51.022;-2.870;2023-11-21T07:52:13;0.80;;;0.70;;
78664;SDS011;67981;51.022;-2.870;2023-11-21T07:54:41;0.70;;;0.52;;
78664;SDS011;67981;51.022;-2.870;2023-11-21T07:57:06;0.60;;;0.60;;
78664;SDS011;67981;51.022;-2.870;2023-11-21T07:59:32;3.83;;;0.85;;
78664;SDS011;67981;51.022;-2.870;2023-11-21T08:01:58;2.25;;;0.57;;
78664;SDS011;67981;51.022;-2.870;2023-11-21T08:04:23;1.67;;;0.68;;
78664;SDS011;67981;51.022;-2.870;2023-11-21T08:06:48;0.88;;;0.70;;
78664;SDS011;67981;51.022;-2.870;2023-11-21T08:09:14;2.95;;;0.88;;
78664;SDS011;67981;51.022;-2.870;2023-11-21T08:11:40;0.65;;;0.65;;
78664;SDS011;67981;51.022;-2.870;2023-11-21T08:14:06;0.80;;;0.80;;
78664;SDS011;67981;51.022;-2.870;2023-11-21T08:16:31;0.50;;;0.50;;
78664;SDS011;67981;51.022;-2.870;2023-11-21T08:18:57;1.10;;;0.80;;
78664;SDS011;67981;51.022;-2.870;2023-11-21T08:21:22;0.60;;;0.60;;
78664;SDS011;67981;51.022;-2.870;2023-11-21T08:23:54;1.52;;;0.63;;
78664;SDS011;67981;51.022;-2.870;2023-11-21T08:26:20;1.63;;;0.60;;
78664;SDS011;67981;51.022;-2.870;2023-11-21T08:28:46;0.57;;;0.57;;
78664;SDS011;67981;51.022;-2.870;2023-11-21T08:31:12;0.98;;;0.68;;
78664;SDS011;67981;51.022;-2.870;2023-11-21T08:33:38;3.78;;;0.98;;
78664;SDS011;67981;51.022;-2.870;2023-11-21T08:36:06;1.35;;;1.25;;
78664;SDS011;67981;51.022;-2.870;2023-11-21T08:38:33;1.08;;;0.95;;
78664;SDS011;67981;51.022;-2.870;2023-11-21T08:41:02;1.23;;;0.60;;
78664;SDS011;67981;51.022;-2.870;2023-11-21T08:43:32;0.57;;;0.47;;
78664;SDS011;67981;51.022;-2.870;2023-11-21T08:45:59;1.02;;;0.70;;
78664;SDS011;67981;51.022;-2.870;2023-11-21T08:48:24;1.17;;;0.60;;
78664;SDS011;67981;51.022;-2.870;2023-11-21T08:50:50;1.65;;;0.60;;
78664;SDS011;67981;51.022;-2.870;2023-11-21T08:53:16;1.25;;;0.88;;
78664;SDS011;67981;51.022;-2.870;2023-11-21T08:55:41;2.75;;;0.80;;
78664;SDS011;67981;51.022;-2.870;2023-11-21T08:58:09;2.53;;;1.00;;
78664;SDS011;67981;51.022;-2.870;2023-11-21T09:00:34;1.05;;;0.68;;
78664;SDS011;67981;51.022;-2.870;2023-11-21T09:03:01;1.25;;;1.08;;
78664;SDS011;67981;51.022;-2.870;2023-11-21T09:05:27;2.85;;;1.30;;
78664;SDS011;67981;51.022;-2.870;2023-11-21T09:07:53;0.70;;;0.70;;
78664;SDS011;67981;51.022;-2.870;2023-11-21T09:10:18;1.17;;;1.00;;
78664;SDS011;67981;51.022;-2.870;2023-11-21T09:12:44;1.15;;;1.08;;
78664;SDS011;67981;51.022;-2.870;2023-11-21T09:15:09;1.77;;;0.95;;
78664;SDS011;67981;51.022;-2.870;2023-11-21T09:17:36;1.23;;;0.80;;
78664;SDS011;67981;51.022;-2.870;2023-11-21T09:20:01;1.83;;;1.10;;
78664;SDS011;67981;51.022;-2.870;2023-11-21T09:22:28;0.90;;;0.70;;
78664;SDS011;67981;51.022;-2.870;2023-11-21T09:24:54;1.13;;;0.80;;
78664;SDS011;67981;51.022;-2.870;2023-11-21T09:27:21;0.30;;;0.22;;
78664;SDS011;67981;51.022;-2.870;2023-11-21T09:29:46;4.22;;;1.85;;
78664;SDS011;67981;51.022;-2.870;2023-11-21T09:32:12;1.25;;;1.10;;
78664;SDS011;67981;51.022;-2.870;2023-11-21T09:34:39;1.25;;;0.95;;
78664;SDS011;67981;51.022;-2.870;2023-11-21T09:37:05;1.50;;;0.85;;
78664;SDS011;67981;51.022;-2.870;2023-11-21T09:39:31;2.08;;;0.98;;
78664;SDS011;67981;51.022;-2.870;2023-11-21T09:42:01;3.80;;;1.08;;
78664;SDS011;67981;51.022;-2.870;2023-11-21T09:44:45;0.70;;;0.70;;
78664;SDS011;67981;51.022;-2.870;2023-11-21T09:47:14;1.25;;;0.77;;
78664;SDS011;67981;51.022;-2.870;2023-11-21T09:49:41;0.75;;;0.70;;
78664;SDS011;67981;51.022;-2.870;2023-11-21T09:52:12;0.73;;;0.70;;
78664;SDS011;67981;51.022;-2.870;2023-11-21T09:54:49;0.30;;;0.28;;
78664;SDS011;67981;51.022;-2.870;2023-11-21T09:57:15;5.68;;;0.88;;
78664;SDS011;67981;51.022;-2.870;2023-11-21T09:59:41;2.38;;;0.90;;
78664;SDS011;67981;51.022;-2.870;2023-11-21T10:02:09;0.73;;;0.57;;
78664;SDS011;67981;51.022;-2.870;2023-11-21T10:04:38;0.55;;;0.55;;
78664;SDS011;67981;51.022;-2.870;2023-11-21T10:07:03;1.15;;;0.90;;
78664;SDS011;67981;51.022;-2.870;2023-11-21T10:09:34;1.30;;;0.68;;
78664;SDS011;67981;51.022;-2.870;2023-11-21T10:12:01;2.03;;;0.70;;
78664;SDS011;67981;51.022;-2.870;2023-11-21T10:14:28;0.70;;;0.70;;
78664;SDS011;67981;51.022;-2.870;2023-11-21T10:16:55;1.23;;;0.90;;
78664;SDS011;67981;51.022;-2.870;2023-11-21T10:19:22;0.82;;;0.80;;
78664;SDS011;67981;51.022;-2.870;2023-11-21T10:21:49;0.85;;;0.70;;
78664;SDS011;67981;51.022;-2.870;2023-11-21T10:24:16;1.40;;;0.73;;
78664;SDS011;67981;51.022;-2.870;2023-11-21T10:26:43;1.63;;;0.95;;
78664;SDS011;67981;51.022;-2.870;2023-11-21T10:29:10;0.90;;;0.73;;
78664;SDS011;67981;51.022;-2.870;2023-11-21T10:31:41;1.63;;;0.80;;
78664;SDS011;67981;51.022;-2.870;2023-11-21T10:34:16;0.70;;;0.70;;
78664;SDS011;67981;51.022;-2.870;2023-11-21T10:36:43;1.35;;;0.77;;
78664;SDS011;67981;51.022;-2.870;2023-11-21T10:39:09;0.75;;;0.70;;
78664;SDS011;67981;51.022;-2.870;2023-11-21T10:41:35;2.20;;;0.80;;
78664;SDS011;67981;51.022;-2.870;2023-11-21T10:44:01;1.83;;;1.10;;
78664;SDS011;67981;51.022;-2.870;2023-11-21T10:46:29;0.88;;;0.75;;
78664;SDS011;67981;51.022;-2.870;2023-11-21T10:48:55;1.90;;;1.00;;
78664;SDS011;67981;51.022;-2.870;2023-11-21T10:51:21;2.92;;;1.00;;
78664;SDS011;67981;51.022;-2.870;2023-11-21T10:53:49;1.83;;;0.70;;
78664;SDS011;67981;51.022;-2.870;2023-11-21T10:56:18;1.95;;;1.25;;
78664;SDS011;67981;51.022;-2.870;2023-11-21T10:58:45;2.00;;;0.70;;
78664;SDS011;67981;51.022;-2.870;2023-11-21T11:01:10;2.67;;;1.02;;
78664;SDS011;67981;51.022;-2.870;2023-11-21T11:03:37;4.10;;;0.98;;
78664;SDS011;67981;51.022;-2.870;2023-11-21T11:06:03;3.17;;;0.88;;
78664;SDS011;67981;51.022;-2.870;2023-11-21T11:08:30;1.45;;;0.88;;
78664;SDS011;67981;51.022;-2.870;2023-11-21T11:10:56;0.60;;;0.60;;
78664;SDS011;67981;51.022;-2.870;2023-11-21T11:13:23;1.10;;;0.85;;
78664;SDS011;67981;51.022;-2.870;2023-11-21T11:15:49;2.03;;;0.95;;
78664;SDS011;67981;51.022;-2.870;2023-11-21T11:18:15;1.50;;;0.80;;
78664;SDS011;67981;51.022;-2.870;2023-11-21T11:20:42;1.88;;;1.23;;
78664;SDS011;67981;51.022;-2.870;2023-11-21T11:23:32;2.67;;;1.05;;
78664;SDS011;67981;51.022;-2.870;2023-11-21T11:31:50;4.65;;;0.93;;
78664;SDS011;67981;51.022;-2.870;2023-11-21T11:34:40;2.50;;;1.15;;
78664;SDS011;67981;51.022;-2.870;2023-11-21T11:37:12;2.65;;;1.27;;
78664;SDS011;67981;51.022;-2.870;2023-11-21T11:39:41;1.13;;;0.90;;
78664;SDS011;67981;51.022;-2.870;2023-11-21T11:42:10;2.55;;;1.25;;
78664;SDS011;67981;51.022;-2.870;2023-11-21T11:47:13;1.90;;;1.30;;
78664;SDS011;67981;51.022;-2.870;2023-11-21T11:50:11;2.42;;;1.08;;
78664;SDS011;67981;51.022;-2.870;2023-11-21T11:52:47;1.40;;;1.10;;
78664;SDS011;67981;51.022;-2.870;2023-11-21T11:55:16;7.30;;;2.10;;
78664;SDS011;67981;51.022;-2.870;2023-11-21T11:57:49;3.13;;;1.02;;
78664;SDS011;67981;51.022;-2.870;2023-11-21T12:00:20;2.10;;;1.20;;
78664;SDS011;67981;51.022;-2.870;2023-11-21T12:02:55;2.97;;;1.38;;
78664;SDS011;67981;51.022;-2.870;2023-11-21T12:05:27;1.73;;;1.17;;
78664;SDS011;67981;51.022;-2.870;2023-11-21T12:07:59;1.70;;;1.15;;
78664;SDS011;67981;51.022;-2.870;2023-11-21T12:10:29;3.97;;;1.58;;
78664;SDS011;67981;51.022;-2.870;2023-11-21T12:15:23;2.17;;;1.70;;
78664;SDS011;67981;51.022;-2.870;2023-11-21T12:17:49;1.52;;;1.00;;
78664;SDS011;67981;51.022;-2.870;2023-11-21T12:20:16;2.00;;;0.70;;
78664;SDS011;67981;51.022;-2.870;2023-11-21T12:22:44;1.75;;;1.20;;
78664;SDS011;67981;51.022;-2.870;2023-11-21T12:25:17;1.52;;;1.13;;
78664;SDS011;67981;51.022;-2.870;2023-11-21T12:27:53;2.10;;;1.23;;
78664;SDS011;67981;51.022;-2.870;2023-11-21T12:30:19;3.33;;;1.90;;
78664;SDS011;67981;51.022;-2.870;2023-11-21T12:32:53;3.05;;;1.52;;
78664;SDS011;67981;51.022;-2.870;2023-11-21T12:35:20;2.33;;;1.20;;
78664;SDS011;67981;51.022;-2.870;2023-11-21T12:37:48;2.33;;;1.30;;
78664;SDS011;67981;51.022;-2.870;2023-11-21T12:40:14;2.38;;;1.50;;
78664;SDS011;67981;51.022;-2.870;2023-11-21T12:42:41;1.40;;;1.30;;
78664;SDS011;67981;51.022;-2.870;2023-11-21T12:47:43;2.08;;;1.80;;
78664;SDS011;67981;51.022;-2.870;2023-11-21T12:50:12;2.50;;;1.55;;
78664;SDS011;67981;51.022;-2.870;2023-11-21T12:52:41;1.88;;;1.40;;
78664;SDS011;67981;51.022;-2.870;2023-11-21T12:55:13;2.35;;;1.58;;
78664;SDS011;67981;51.022;-2.870;2023-11-21T12:57:43;3.58;;;1.73;;
78664;SDS011;67981;51.022;-2.870;2023-11-21T13:00:10;4.28;;;1.58;;
78664;SDS011;67981;51.022;-2.870;2023-11-21T13:02:41;2.55;;;1.60;;
78664;SDS011;67981;51.022;-2.870;2023-11-21T13:05:08;3.05;;;1.75;;
78664;SDS011;67981;51.022;-2.870;2023-11-21T13:07:43;1.90;;;1.40;;
78664;SDS011;67981;51.022;-2.870;2023-11-21T13:10:12;3.55;;;1.63;;
78664;SDS011;67981;51.022;-2.870;2023-11-21T13:12:42;2.35;;;1.63;;
78664;SDS011;67981;51.022;-2.870;2023-11-21T13:15:13;2.00;;;1.45;;
78664;SDS011;67981;51.022;-2.870;2023-11-21T13:17:42;3.00;;;2.00;;
78664;SDS011;67981;51.022;-2.870;2023-11-21T13:20:13;2.17;;;1.52;;
78664;SDS011;67981;51.022;-2.870;2023-11-21T13:25:23;2.60;;;1.67;;
78664;SDS011;67981;51.022;-2.870;2023-11-21T13:27:52;2.83;;;1.83;;
78664;SDS011;67981;51.022;-2.870;2023-11-21T13:30:18;2.67;;;1.88;;
78664;SDS011;67981;51.022;-2.870;2023-11-21T13:32:48;2.58;;;1.80;;
78664;SDS011;67981;51.022;-2.870;2023-11-21T13:37:55;2.78;;;1.58;;
78664;SDS011;67981;51.022;-2.870;2023-11-21T13:40:25;3.30;;;1.75;;
78664;SDS011;67981;51.022;-2.870;2023-11-21T13:42:51;2.75;;;1.65;;
78664;SDS011;67981;51.022;-2.870;2023-11-21T13:45:22;1.98;;;1.33;;
78664;SDS011;67981;51.022;-2.870;2023-11-21T13:47:52;4.18;;;2.28;;
78664;SDS011;67981;51.022;-2.870;2023-11-21T13:50:24;3.55;;;1.63;;
78664;SDS011;67981;51.022;-2.870;2023-11-21T13:52:55;3.30;;;1.75;;
78664;SDS011;67981;51.022;-2.870;2023-11-21T13:55:21;4.82;;;3.53;;
78664;SDS011;67981;51.022;-2.870;2023-11-21T13:57:50;2.63;;;1.92;;
78664;SDS011;67981;51.022;-2.870;2023-11-21T14:00:16;3.65;;;1.88;;
78664;SDS011;67981;51.022;-2.870;2023-11-21T14:03:00;3.35;;;2.15;;
78664;SDS011;67981;51.022;-2.870;2023-11-21T14:05:29;2.35;;;2.00;;
78664;SDS011;67981;51.022;-2.870;2023-11-21T14:07:56;3.58;;;2.35;;
78664;SDS011;67981;51.022;-2.870;2023-11-21T14:10:28;4.63;;;2.20;;
78664;SDS011;67981;51.022;-2.870;2023-11-21T14:13:02;2.72;;;2.10;;
78664;SDS011;67981;51.022;-2.870;2023-11-21T14:15:29;2.28;;;1.80;;
78664;SDS011;67981;51.022;-2.870;2023-11-21T14:17:56;3.85;;;2.20;;
78664;SDS011;67981;51.022;-2.870;2023-11-21T14:20:21;3.25;;;2.22;;
78664;SDS011;67981;51.022;-2.870;2023-11-21T14:22:47;3.42;;;1.67;;
78664;SDS011;67981;51.022;-2.870;2023-11-21T14:25:12;4.88;;;3.38;;
78664;SDS011;67981;51.022;-2.870;2023-11-21T14:27:39;2.85;;;1.55;;
78664;SDS011;67981;51.022;-2.870;2023-11-21T14:30:05;3.92;;;1.88;;
78664;SDS011;67981;51.022;-2.870;2023-11-21T14:32:31;2.70;;;2.05;;
78664;SDS011;67981;51.022;-2.870;2023-11-21T14:34:57;3.72;;;2.20;;
78664;SDS011;67981;51.022;-2.870;2023-11-21T14:37:22;2.45;;;1.98;;
78664;SDS011;67981;51.022;-2.870;2023-11-21T14:39:48;3.75;;;1.80;;
78664;SDS011;67981;51.022;-2.870;2023-11-21T14:42:15;4.20;;;1.50;;
78664;SDS011;67981;51.022;-2.870;2023-11-21T14:44:40;2.38;;;1.67;;
78664;SDS011;67981;51.022;-2.870;2023-11-21T14:47:07;2.92;;;2.10;;
78664;SDS011;67981;51.022;-2.870;2023-11-21T14:49:41;2.63;;;1.42;;
78664;SDS011;67981;51.022;-2.870;2023-11-21T14:52:18;2.88;;;1.77;;